Terminal Aerodrome Forecast
Issued by NWS

Home | Current Version | Previous Version | Text Only | Print | Product List | Glossary On
Versions: 1 2 3 4 5 6 7 8 9 10 11 12
000
FTUS44 KSJT 031100
TAFSOA
TAF
KSOA 031120Z 0312/0412 18010G16KT P6SM OVC015
     FM031900 17009G16KT P6SM OVC250
     FM040100 13010G17KT P6SM OVC050
     FM040400 14012KT P6SM OVC015=

USA.gov is the U.S. government's official web portal to all federal, state and local government web resources and services.